Etusivu
METAR-TAF:

METAR-TAF

Lentoasemat :

Castres, Ranska

Leveyspiiri: 43-33-25N, Pituuspiiri: 2-17-21E, korkeus merenpinnasta: 239 m

Tämänhetkinen sää

Tämä raportti tehtiin 19 minuuttia sitten, kello 16.00 UTC
Tuuli 5 kn pohjoisen/luoteesta, vaihdellen lännen/luoteen ja pohjoisen/koillisen välillä
Lämpötila 16°C
Kosteus 31%
Ilmanpaine 1028 hPa
Näkyvyys 10 km tai enemmän
ei pilviä alle 1500 m:ssä eikä cumulonimbus-pilviä

METAR: LFCK 211600Z AUTO 33005KT 290V030 CAVOK 16/M01 Q1028 NOSIG

Aika: 17:19 (16:19 UTC)

Sääennuste

Tämä raportti tehtiin 2 tuntia ja 19 minuuttia sitten, kello 14.00 UTC
Ennuste voimassa 21. päivästä klo 15 UTC - 21. päivään klo 24 UTC
Tuuli 2 kn eri suunnista
Näkyvyys 10 km tai enemmän
ei pilviä alle 1500 m:ssä eikä cumulonimbus-pilviä

TAF: LFCK 211400Z 2115/2124 VRB02KT CAVOK

Säähavainnot ja -ennusteet yli 4000 lentoasemalta (METAR- ja TAF-raportit).

Käytössä olevat sääasemat on merkitty karttaan keltaisilla ja punaisilla pisteillä.

Aseta hiiri pisteen päälle nähdäksesi sääaseman nimen.

Klikkaa sitten nähdäksesi säähavainnot ja -ennusteet.

Kartan vaihtaminen: klikkaa mustalla rastilla varustettuja vihreitä pisteitä, niin voit zoomata sisään; viivalla varustettua vihreää pistettä, niin voit zoomata ulos tai vihreitä nuolia, niin pääset viereisille kartoille.


METAR-TAF: